Time;durP1;ratioP1;P1;durP2;ratioP2;P2;SDS_P1;SDS_P2;PMS_P1;PMS_P2;Temp;Humidity;BMP_temperature;BMP_pressure;BME280_temperature;BME280_humidity;BME280_pressure;Samples;Min_cycle;Max_cycle;Signal;HPM_P1;HPM_P2
2022/08/14 00:02:18;;;;;;;4.80;3.92;;;16.00;99.90;;;;;;5014125;28;20503;-70
2022/08/14 00:04:50;;;;;;;5.03;4.45;;;15.80;99.90;;;;;;5015246;28;20056;-70
2022/08/14 00:07:22;;;;;;;4.25;3.85;;;15.80;99.90;;;;;;4996273;28;20052;-72
2022/08/14 00:09:53;;;;;;;6.40;4.43;;;15.70;99.90;;;;;;5015393;28;20026;-72
2022/08/14 00:12:25;;;;;;;5.05;3.88;;;15.60;99.90;;;;;;5031974;28;20069;-72
2022/08/14 00:14:57;;;;;;;4.82;4.35;;;15.50;99.90;;;;;;5014330;28;20053;-72
2022/08/14 00:17:29;;;;;;;5.82;4.45;;;15.40;99.90;;;;;;5031160;28;20073;-72
2022/08/14 00:20:01;;;;;;;5.57;5.07;;;15.40;99.90;;;;;;5032038;28;20044;-72
2022/08/14 00:22:34;;;;;;;4.85;4.45;;;15.40;99.90;;;;;;5028060;28;20125;-73
2022/08/14 00:25:07;;;;;;;6.40;4.50;;;15.50;99.90;;;;;;5028281;28;20084;-72
2022/08/14 00:27:39;;;;;;;4.90;4.05;;;15.50;99.90;;;;;;5014856;28;20053;-72
2022/08/14 00:30:13;;;;;;;4.75;4.25;;;15.50;99.90;;;;;;5022216;28;20038;-72
2022/08/14 00:32:45;;;;;;;6.28;4.68;;;15.50;99.90;;;;;;5032783;28;20570;-73
2022/08/14 00:35:17;;;;;;;5.20;4.75;;;15.50;99.90;;;;;;5029614;28;20049;-72
2022/08/14 00:37:49;;;;;;;4.63;4.22;;;15.50;99.90;;;;;;5031626;28;20051;-73
2022/08/14 00:40:21;;;;;;;4.50;4.13;;;15.40;99.90;;;;;;5014328;28;20045;-72
2022/08/14 00:42:53;;;;;;;4.43;4.03;;;15.40;99.90;;;;;;4999168;28;20045;-72
2022/08/14 00:45:25;;;;;;;5.80;4.43;;;15.40;99.90;;;;;;5028276;28;20147;-72
2022/08/14 00:47:57;;;;;;;6.15;4.65;;;15.40;99.90;;;;;;5035371;28;20057;-72
2022/08/14 00:50:29;;;;;;;5.50;4.00;;;15.40;99.90;;;;;;5009242;28;20037;-72
2022/08/14 00:53:02;;;;;;;4.68;4.28;;;15.50;99.90;;;;;;5032563;28;20056;-72
2022/08/14 00:55:36;;;;;;;6.80;4.53;;;15.50;99.90;;;;;;5032030;28;20104;-72
2022/08/14 01:01:10;;;;;;;4.53;4.13;;;15.40;99.90;;;;;;5041291;28;20046;-72
2022/08/14 01:03:41;;;;;;;4.70;4.30;;;15.40;99.90;;;;;;5036785;28;20060;-75
2022/08/14 01:06:13;;;;;;;4.75;4.28;;;15.40;99.90;;;;;;4998114;28;20160;-72
2022/08/14 01:08:45;;;;;;;5.80;4.63;;;15.30;99.90;;;;;;5010641;28;20048;-72
2022/08/14 01:11:17;;;;;;;5.57;4.55;;;15.30;99.90;;;;;;5012285;28;20399;-72
2022/08/14 01:13:49;;;;;;;4.65;4.25;;;15.30;99.90;;;;;;5012439;28;20060;-72
2022/08/14 01:16:21;;;;;;;6.05;4.78;;;15.40;99.90;;;;;;5021406;28;20049;-72
2022/08/14 01:21:45;;;;;;;4.80;4.40;;;15.30;99.90;;;;;;5030812;28;20040;-72
2022/08/14 01:24:18;;;;;;;5.88;5.07;;;15.30;99.90;;;;;;5029516;28;20041;-72
2022/08/14 01:26:52;;;;;;;5.28;4.78;;;15.20;99.90;;;;;;5014627;28;20046;-70
2022/08/14 01:29:19;;;;;;;5.65;5.22;;;15.10;99.90;;;;;;5012952;28;20041;-70
2022/08/14 01:31:51;;;;;;;5.38;4.88;;;15.10;99.90;;;;;;4998107;28;20041;-70
2022/08/14 01:34:25;;;;;;;6.03;5.45;;;15.10;99.90;;;;;;5016110;28;20068;-70
2022/08/14 01:36:56;;;;;;;6.53;5.93;;;15.00;99.90;;;;;;5014732;28;20108;-70
2022/08/14 01:39:28;;;;;;;5.95;5.45;;;15.00;99.90;;;;;;5030634;28;20460;-70
2022/08/14 01:42:01;;;;;;;7.20;6.53;;;14.90;99.90;;;;;;5031241;28;20046;-71
2022/08/14 01:44:33;;;;;;;5.83;5.33;;;14.80;99.90;;;;;;5013437;28;20049;-70
2022/08/14 01:47:11;;;;;;;6.40;5.32;;;14.80;99.90;;;;;;5031476;28;20037;-70
2022/08/14 01:49:42;;;;;;;5.75;5.18;;;14.80;99.90;;;;;;5010709;28;20041;-69
2022/08/14 01:52:14;;;;;;;8.13;5.18;;;14.80;99.90;;;;;;5030066;28;20034;-70
2022/08/14 01:54:46;;;;;;;5.15;4.65;;;14.80;99.90;;;;;;5029179;28;20041;-70
2022/08/14 01:57:18;;;;;;;5.00;4.60;;;14.80;99.90;;;;;;5031349;28;20389;-70
2022/08/14 01:59:50;;;;;;;5.65;4.95;;;14.80;99.90;;;;;;5028375;28;20037;-70
2022/08/14 02:02:22;;;;;;;8.82;5.97;;;14.90;99.90;;;;;;5027085;28;20061;-70
2022/08/14 02:04:53;;;;;;;4.75;4.25;;;14.90;99.90;;;;;;5000176;28;20045;-71
2022/08/14 02:07:25;;;;;;;6.65;4.28;;;14.90;99.90;;;;;;5028620;28;20048;-70
2022/08/14 02:09:57;;;;;;;4.70;4.30;;;14.80;99.90;;;;;;5000618;28;20080;-70
2022/08/14 02:12:29;;;;;;;5.80;4.68;;;14.70;99.90;;;;;;5022922;28;20406;-70
2022/08/14 02:15:03;;;;;;;5.85;5.32;;;14.60;99.90;;;;;;5013551;28;20051;-70
2022/08/14 02:17:35;;;;;;;5.70;5.13;;;14.50;99.90;;;;;;5010108;28;20061;-70
2022/08/14 02:20:07;;;;;;;4.72;4.28;;;14.50;99.90;;;;;;5003099;28;20455;-70
2022/08/14 02:22:39;;;;;;;4.57;4.18;;;14.50;99.90;;;;;;5010902;28;20440;-70
2022/08/14 02:25:06;;;;;;;5.18;4.32;;;14.40;99.90;;;;;;5029604;28;20038;-70
2022/08/14 02:27:41;;;;;;;6.05;4.55;;;14.20;99.90;;;;;;5030622;28;20073;-69
2022/08/14 02:30:14;;;;;;;5.63;5.13;;;14.10;99.90;;;;;;5026518;28;20038;-70
2022/08/14 02:32:45;;;;;;;4.75;4.35;;;14.10;99.90;;;;;;5029793;28;20500;-70
2022/08/14 02:35:18;;;;;;;5.15;4.65;;;14.10;99.90;;;;;;5012768;28;20049;-70
2022/08/14 02:37:50;;;;;;;5.38;4.88;;;14.10;99.90;;;;;;5012137;28;20056;-70
2022/08/14 02:40:22;;;;;;;5.65;4.38;;;14.00;99.90;;;;;;5013044;28;20495;-70
2022/08/14 02:42:55;;;;;;;4.95;4.53;;;14.00;99.90;;;;;;5029568;28;20068;-70
2022/08/14 02:45:32;;;;;;;4.88;4.47;;;14.00;99.90;;;;;;5011848;28;20045;-70
2022/08/14 02:48:06;;;;;;;5.00;4.32;;;14.00;99.90;;;;;;5030764;28;20519;-70
2022/08/14 02:50:34;;;;;;;6.45;4.63;;;14.00;99.90;;;;;;5011637;28;20108;-70
2022/08/14 02:53:06;;;;;;;5.10;4.65;;;13.90;99.90;;;;;;4997244;28;20041;-70
2022/08/14 02:55:39;;;;;;;4.80;4.40;;;13.90;99.90;;;;;;5027494;28;20132;-70
2022/08/14 02:58:10;;;;;;;4.90;4.38;;;13.80;99.90;;;;;;5013377;28;20538;-71
2022/08/14 03:00:42;;;;;;;4.93;4.47;;;13.70;99.90;;;;;;5011353;28;20049;-70
2022/08/14 03:03:16;;;;;;;7.30;5.40;;;13.70;99.90;;;;;;5010848;28;20495;-71
2022/08/14 03:05:50;;;;;;;5.93;5.32;;;13.70;99.90;;;;;;5013051;28;20096;-70
2022/08/14 03:08:21;;;;;;;5.95;5.45;;;13.70;99.90;;;;;;5025332;28;20050;-70
2022/08/14 03:10:53;;;;;;;6.03;5.45;;;13.70;99.90;;;;;;5009221;28;20037;-70
2022/08/14 03:13:26;;;;;;;6.55;5.90;;;13.80;99.90;;;;;;5028515;28;20044;-70
2022/08/14 03:15:58;;;;;;;6.25;5.57;;;14.00;99.90;;;;;;5029962;28;20041;-70
2022/08/14 03:18:30;;;;;;;6.22;5.28;;;14.10;99.90;;;;;;5031382;28;20052;-70
2022/08/14 03:21:06;;;;;;;9.68;5.35;;;14.10;99.90;;;;;;5011189;28;20416;-70
2022/08/14 03:23:39;;;;;;;5.82;5.00;;;14.10;99.90;;;;;;5014299;28;20073;-70
2022/08/14 03:26:14;;;;;;;5.47;4.97;;;14.10;99.90;;;;;;5034365;28;20132;-70
2022/08/14 03:28:49;;;;;;;5.50;5.00;;;14.00;99.90;;;;;;5031412;28;20042;-69
2022/08/14 03:31:22;;;;;;;5.70;5.20;;;14.00;99.90;;;;;;5031708;28;20033;-70
2022/08/14 03:33:55;;;;;;;5.72;4.93;;;14.00;99.90;;;;;;5013588;28;20038;-70
2022/08/14 03:36:29;;;;;;;6.50;5.43;;;14.10;99.90;;;;;;5033979;28;20488;-70
2022/08/14 03:39:03;;;;;;;7.10;5.45;;;14.10;99.90;;;;;;5033068;28;20055;-70
2022/08/14 03:41:35;;;;;;;6.95;6.25;;;14.20;99.90;;;;;;4995416;28;20046;-70
2022/08/14 03:44:07;;;;;;;8.63;7.28;;;14.20;99.90;;;;;;5014707;28;20135;-70
2022/08/14 03:46:41;;;;;;;8.57;7.78;;;14.00;99.90;;;;;;5016505;28;20511;-70
2022/08/14 03:49:15;;;;;;;8.80;7.53;;;13.90;99.90;;;;;;5015367;28;20041;-70
2022/08/14 03:51:46;;;;;;;8.27;7.47;;;13.90;99.90;;;;;;5000854;28;20057;-70
2022/08/14 03:54:18;;;;;;;9.85;7.90;;;13.80;99.90;;;;;;5028139;28;20045;-70
2022/08/14 03:56:45;;;;;;;10.75;9.75;;;13.70;99.90;;;;;;5000657;28;20447;-70
2022/08/14 03:59:17;;;;;;;9.48;8.57;;;13.60;99.90;;;;;;5031811;28;20060;-70
2022/08/14 04:01:50;;;;;;;8.75;7.85;;;13.60;99.90;;;;;;5011383;28;20042;-70
2022/08/14 04:04:22;;;;;;;10.02;7.90;;;13.50;99.90;;;;;;5032525;28;20045;-70
2022/08/14 04:06:54;;;;;;;11.45;8.70;;;13.50;99.90;;;;;;5033703;28;20397;-70
2022/08/14 04:09:26;;;;;;;9.82;7.72;;;13.40;99.90;;;;;;5032100;28;20060;-70
2022/08/14 04:11:58;;;;;;;8.95;8.07;;;13.30;99.90;;;;;;5031061;28;20496;-70
2022/08/14 04:14:25;;;;;;;8.90;7.85;;;13.40;99.90;;;;;;5030381;28;20041;-70
2022/08/14 04:16:57;;;;;;;8.55;7.75;;;13.40;99.90;;;;;;5031393;28;20061;-70
2022/08/14 04:19:23;;;;;;;7.88;7.18;;;13.40;99.90;;;;;;5013033;28;20523;-70
2022/08/14 04:21:55;;;;;;;10.00;7.70;;;13.40;99.90;;;;;;5029431;28;20052;-70
2022/08/14 04:24:27;;;;;;;7.75;7.05;;;13.30;99.90;;;;;;5014373;28;20045;-70
2022/08/14 04:26:59;;;;;;;7.07;6.38;;;13.30;99.90;;;;;;5024049;28;20085;-69
2022/08/14 04:29:31;;;;;;;7.50;6.80;;;13.30;99.90;;;;;;5030993;28;20029;-71
2022/08/14 04:32:06;;;;;;;7.82;7.07;;;13.40;99.90;;;;;;5054344;28;20038;-70
2022/08/14 04:34:40;;;;;;;9.43;7.10;;;13.40;99.90;;;;;;5023214;28;20444;-70
2022/08/14 04:45:39;;;;;;;7.03;6.35;;;13.50;99.90;;;;;;5007372;28;20061;-70
2022/08/14 04:48:13;;;;;;;6.80;6.20;;;13.50;99.90;;;;;;5015724;28;20048;-70
2022/08/14 04:50:49;;;;;;;6.63;5.93;;;13.50;99.90;;;;;;5031775;28;20045;-70
2022/08/14 04:53:25;;;;;;;7.07;6.28;;;13.50;99.90;;;;;;5004497;28;20084;-70
2022/08/14 04:55:57;;;;;;;6.63;4.93;;;13.50;99.90;;;;;;5014413;28;20049;-69
2022/08/14 04:58:31;;;;;;;6.65;6.05;;;13.60;99.90;;;;;;4999843;28;20472;-70
2022/08/14 05:01:06;;;;;;;6.50;5.90;;;13.60;99.90;;;;;;5013354;28;20049;-70
2022/08/14 05:03:38;;;;;;;6.85;6.25;;;13.60;99.90;;;;;;5028699;28;20391;-70
2022/08/14 05:06:11;;;;;;;7.57;6.22;;;13.60;99.90;;;;;;5010046;28;20061;-70
2022/08/14 05:08:43;;;;;;;7.72;6.78;;;13.60;99.90;;;;;;5025837;28;20049;-70
2022/08/14 05:11:18;;;;;;;14.25;9.10;;;13.70;99.90;;;;;;5026294;23;20092;-72
2022/08/14 05:13:50;;;;;;;18.60;11.50;;;13.70;99.90;;;;;;5050113;28;20090;-71
2022/08/14 05:16:21;;;;;;;34.15;19.67;;;13.70;99.90;;;;;;5047874;28;20076;-72
2022/08/14 05:18:53;;;;;;;41.72;24.42;;;13.70;99.90;;;;;;5052930;28;20057;-72
2022/08/14 05:21:27;;;;;;;38.83;22.40;;;13.80;99.90;;;;;;5049365;28;20049;-72
2022/08/14 05:23:59;;;;;;;29.63;16.67;;;13.80;99.90;;;;;;5015307;28;20047;-72
2022/08/14 05:26:31;;;;;;;23.70;13.98;;;13.90;99.90;;;;;;5045760;28;20119;-71
2022/08/14 05:29:05;;;;;;;20.33;14.07;;;13.90;99.90;;;;;;5048756;28;20398;-71
2022/08/14 05:31:39;;;;;;;19.40;12.55;;;14.00;99.90;;;;;;5044554;28;20137;-71
2022/08/14 05:34:10;;;;;;;;;;;14.00;99.90;;;;;;5046812;28;20841;-72
2022/08/14 05:36:42;;;;;;;29.30;16.88;;;14.00;99.90;;;;;;5033633;28;19927;-71
2022/08/14 05:39:14;;;;;;;36.13;20.00;;;14.10;99.90;;;;;;5048156;28;20075;-72
2022/08/14 05:41:46;;;;;;;49.85;29.45;;;14.20;99.90;;;;;;5045955;28;20069;-71
2022/08/14 05:44:12;;;;;;;37.70;22.83;;;14.20;99.90;;;;;;5030648;28;20051;-71
2022/08/14 05:46:44;;;;;;;29.08;18.52;;;14.30;99.90;;;;;;5046952;28;20487;-72
2022/08/14 05:49:16;;;;;;;24.15;17.30;;;14.30;99.90;;;;;;5024158;28;20041;-72
2022/08/14 05:51:48;;;;;;;19.27;12.52;;;14.40;99.90;;;;;;5044578;28;20029;-72
2022/08/14 05:54:20;;;;;;;12.30;10.52;;;14.50;99.90;;;;;;5048934;28;20499;-72
2022/08/14 05:56:51;;;;;;;15.77;12.52;;;14.50;99.90;;;;;;5051196;28;20079;-71
2022/08/14 05:59:23;;;;;;;16.27;13.02;;;14.60;99.90;;;;;;5052279;28;20037;-72
2022/08/14 06:01:55;;;;;;;14.35;10.45;;;14.70;99.90;;;;;;5045363;28;20144;-71
2022/08/14 06:04:28;;;;;;;11.98;10.70;;;14.60;99.90;;;;;;5028722;28;20080;-71
2022/08/14 06:06:59;;;;;;;11.18;9.48;;;14.60;99.90;;;;;;5028565;28;20080;-71
2022/08/14 06:09:31;;;;;;;10.95;9.95;;;14.70;99.90;;;;;;5051830;28;20037;-71
2022/08/14 06:12:03;;;;;;;9.75;8.93;;;14.70;99.90;;;;;;5050513;28;20033;-71
2022/08/14 06:14:30;;;;;;;10.18;9.15;;;14.70;99.90;;;;;;5050272;28;20036;-71
2022/08/14 06:17:03;;;;;;;10.27;9.07;;;14.80;99.90;;;;;;5052389;28;20046;-71
2022/08/14 06:19:35;;;;;;;11.70;10.05;;;14.90;99.90;;;;;;5049633;28;20045;-71
2022/08/14 06:22:06;;;;;;;10.98;8.82;;;15.00;99.90;;;;;;5047474;28;20045;-71
2022/08/14 06:24:38;;;;;;;10.52;9.05;;;15.10;99.90;;;;;;5048327;28;20051;-72
2022/08/14 06:27:10;;;;;;;9.50;8.57;;;15.20;99.90;;;;;;5046766;28;20457;-72
2022/08/14 06:29:42;;;;;;;9.85;8.95;;;15.30;99.90;;;;;;5048290;28;20099;-72
2022/08/14 06:32:14;;;;;;;15.38;9.88;;;15.40;99.90;;;;;;5023975;28;20041;-72
2022/08/14 06:34:45;;;;;;;14.00;10.80;;;15.50;99.90;;;;;;5051057;28;20103;-72
2022/08/14 06:37:17;;;;;;;11.68;10.00;;;15.60;99.90;;;;;;5049128;28;20055;-71
2022/08/14 06:39:49;;;;;;;11.50;10.30;;;15.70;99.90;;;;;;5033679;28;20575;-72
2022/08/14 06:42:21;;;;;;;11.00;10.02;;;15.80;99.90;;;;;;5047305;28;20060;-71
2022/08/14 06:44:52;;;;;;;11.30;10.20;;;15.80;99.90;;;;;;5029988;28;20043;-72
2022/08/14 06:47:24;;;;;;;11.43;10.02;;;15.90;99.90;;;;;;5027950;28;20049;-72
2022/08/14 06:49:56;;;;;;;15.98;10.50;;;16.00;99.90;;;;;;5051465;28;20045;-72
2022/08/14 06:52:27;;;;;;;12.20;10.20;;;16.10;99.90;;;;;;5031643;28;20045;-71
2022/08/14 06:54:59;;;;;;;12.45;11.18;;;16.20;99.90;;;;;;5049253;28;20037;-71
2022/08/14 06:57:37;;;;;;;11.55;10.40;;;16.20;99.90;;;;;;5032724;28;20049;-71
2022/08/14 07:00:12;;;;;;;11.48;9.20;;;16.30;99.90;;;;;;5051386;28;20037;-71
2022/08/14 07:05:45;;;;;;;11.27;10.10;;;16.50;99.90;;;;;;5047233;28;20064;-71
2022/08/14 07:08:19;;;;;;;10.63;9.63;;;16.60;99.90;;;;;;5033164;28;20491;-72
2022/08/14 07:10:59;;;;;;;11.75;9.40;;;16.70;99.90;;;;;;5033258;28;20457;-71
2022/08/14 07:13:27;;;;;;;10.48;9.55;;;16.80;99.90;;;;;;5047903;28;20048;-71
2022/08/14 07:15:59;;;;;;;11.20;9.70;;;16.90;99.90;;;;;;5050531;28;20562;-71
2022/08/14 07:18:33;;;;;;;10.15;9.15;;;17.00;99.90;;;;;;5034046;28;20401;-71
2022/08/14 07:21:05;;;;;;;9.82;8.15;;;17.10;99.90;;;;;;5032932;28;20415;-72
2022/08/14 07:23:37;;;;;;;9.30;8.27;;;17.20;99.90;;;;;;5033472;28;20052;-72
2022/08/14 07:26:09;;;;;;;9.27;8.38;;;17.40;99.90;;;;;;5047996;28;20102;-71
2022/08/14 07:28:41;;;;;;;8.02;7.32;;;17.50;99.90;;;;;;5047648;28;20037;-71
2022/08/14 07:31:13;;;;;;;8.68;7.78;;;17.60;99.90;;;;;;5045109;28;20111;-72
2022/08/14 07:33:47;;;;;;;8.55;7.85;;;17.80;99.90;;;;;;5026153;28;20057;-72
2022/08/14 07:36:20;;;;;;;7.20;6.50;;;17.90;99.90;;;;;;5029019;28;20041;-73
2022/08/14 07:38:47;;;;;;;7.13;6.45;;;18.10;99.90;;;;;;5030923;28;20045;-73
2022/08/14 07:41:18;;;;;;;8.45;7.05;;;18.30;99.90;;;;;;5012285;28;20053;-72
2022/08/14 07:43:50;;;;;;;7.03;6.43;;;18.40;99.90;;;;;;5044956;28;20044;-72
2022/08/14 07:46:22;;;;;;;6.55;6.05;;;18.60;99.90;;;;;;5041702;28;20041;-72
2022/08/14 07:48:55;;;;;;;5.75;5.07;;;18.70;99.90;;;;;;5045850;28;20403;-72
2022/08/14 07:51:27;;;;;;;7.75;6.00;;;18.90;99.90;;;;;;5048338;28;20067;-72
2022/08/14 07:53:59;;;;;;;5.53;5.03;;;19.10;99.90;;;;;;5050090;28;20055;-72
2022/08/14 07:56:27;;;;;;;5.90;4.88;;;19.30;99.90;;;;;;5050058;28;20045;-71
2022/08/14 07:58:58;;;;;;;7.60;5.70;;;19.50;99.90;;;;;;5045022;28;20041;-72
2022/08/14 08:01:32;;;;;;;4.88;4.47;;;19.60;99.90;;;;;;5017986;28;20048;-72
2022/08/14 08:04:07;;;;;;;5.30;4.80;;;19.80;99.90;;;;;;5051800;28;20041;-72
2022/08/14 08:06:39;;;;;;;6.93;4.35;;;20.00;99.90;;;;;;5054124;28;20041;-72
2022/08/14 08:09:11;;;;;;;4.90;4.50;;;20.20;99.90;;;;;;5053264;28;20055;-73
2022/08/14 08:11:44;;;;;;;4.53;4.03;;;20.40;99.90;;;;;;5051876;28;20553;-72
2022/08/14 08:14:17;;;;;;;4.20;3.80;;;20.60;99.90;;;;;;5049272;28;20124;-72
2022/08/14 08:16:49;;;;;;;4.13;3.80;;;20.80;99.90;;;;;;5026306;28;20052;-72
2022/08/14 08:19:21;;;;;;;5.22;3.10;;;21.00;99.90;;;;;;5033605;28;20494;-72
2022/08/14 08:21:48;;;;;;;3.97;3.13;;;21.30;99.90;;;;;;5048504;28;20526;-72
2022/08/14 08:24:19;;;;;;;3.47;3.17;;;21.50;99.90;;;;;;5038919;28;20495;-72
2022/08/14 08:26:51;;;;;;;4.35;3.00;;;21.70;99.90;;;;;;5045715;28;20044;-72
2022/08/14 08:29:23;;;;;;;5.60;3.38;;;22.00;99.90;;;;;;5048918;28;20033;-72
2022/08/14 08:31:55;;;;;;;3.80;3.47;;;22.30;99.90;;;;;;5030680;28;20455;-72
2022/08/14 08:34:28;;;;;;;4.05;3.25;;;22.40;99.70;;;;;;5042517;28;20048;-73
2022/08/14 08:37:00;;;;;;;4.95;3.67;;;22.60;99.60;;;;;;5027496;28;20041;-72
2022/08/14 08:39:42;;;;;;;4.88;2.90;;;22.80;99.30;;;;;;5046075;28;20056;-72
2022/08/14 08:42:24;;;;;;;3.78;3.30;;;23.00;98.50;;;;;;5038818;28;20041;-72
2022/08/14 08:44:56;;;;;;;4.15;3.20;;;23.20;98.10;;;;;;5039247;28;20037;-73
2022/08/14 08:47:39;;;;;;;4.85;3.75;;;23.30;97.70;;;;;;5022066;28;20054;-72
2022/08/14 08:50:19;;;;;;;3.53;3.22;;;23.40;97.10;;;;;;5041253;28;20045;-70
2022/08/14 08:52:52;;;;;;;4.50;4.10;;;23.60;96.80;;;;;;5041355;28;20128;-70
2022/08/14 08:55:28;;;;;;;;;;;23.70;96.20;;;;;;5041233;28;20087;-70
2022/08/14 08:58:03;;;;;;;4.90;3.70;;;23.70;95.40;;;;;;5046499;28;20342;-70
2022/08/14 09:00:37;;;;;;;3.40;3.10;;;23.80;95.80;;;;;;5043303;28;20045;-71
2022/08/14 09:03:16;;;;;;;3.40;3.10;;;23.80;94.60;;;;;;5042011;28;20048;-71
2022/08/14 09:05:50;;;;;;;3.80;3.50;;;23.80;94.10;;;;;;5040703;28;20045;-70
2022/08/14 09:08:24;;;;;;;3.50;3.20;;;24.00;93.60;;;;;;5039879;28;20065;-71
2022/08/14 09:10:57;;;;;;;3.78;3.17;;;24.00;93.30;;;;;;5044446;28;20060;-70
2022/08/14 09:13:30;;;;;;;3.78;3.47;;;24.10;93.40;;;;;;5024702;28;20041;-70
2022/08/14 09:16:02;;;;;;;5.00;3.50;;;24.30;93.50;;;;;;5046047;28;20124;-71
2022/08/14 09:18:34;;;;;;;3.70;3.40;;;24.50;92.50;;;;;;5051870;28;20072;-70
2022/08/14 09:21:07;;;;;;;5.60;3.42;;;24.60;91.70;;;;;;5025617;28;20040;-71
2022/08/14 09:23:36;;;;;;;3.65;3.10;;;24.80;92.40;;;;;;5016996;28;20183;-71
2022/08/14 09:26:07;;;;;;;3.03;2.63;;;25.00;90.40;;;;;;5024521;28;20176;-70
2022/08/14 09:28:39;;;;;;;3.45;3.15;;;25.10;89.50;;;;;;5040255;28;20052;-70
2022/08/14 09:31:13;;;;;;;3.90;3.30;;;25.20;87.00;;;;;;5044092;28;20045;-71
2022/08/14 09:33:51;;;;;;;3.85;3.53;;;25.30;87.00;;;;;;5043583;28;20063;-70
2022/08/14 09:36:47;;;;;;;4.97;3.30;;;25.50;87.30;;;;;;5039182;28;20037;-70
2022/08/14 09:39:30;;;;;;;3.60;3.30;;;25.60;85.50;;;;;;5039946;28;20049;-70
2022/08/14 09:42:35;;;;;;;3.55;2.92;;;25.80;85.60;;;;;;5036393;28;20033;-70
2022/08/14 09:45:16;;;;;;;3.65;3.30;;;26.00;83.10;;;;;;5028215;28;20490;-70
2022/08/14 09:47:51;;;;;;;4.95;3.03;;;26.10;81.50;;;;;;5033918;28;20642;-70
2022/08/14 09:50:23;;;;;;;3.53;3.22;;;26.20;82.00;;;;;;5031783;28;20060;-69
2022/08/14 09:53:01;;;;;;;4.40;3.55;;;26.30;81.90;;;;;;5030106;28;20048;-70
2022/08/14 09:55:32;;;;;;;4.53;4.13;;;26.30;80.00;;;;;;5049203;28;20045;-70
2022/08/14 09:58:12;;;;;;;3.50;3.20;;;26.50;80.10;;;;;;5030766;28;20049;-69
2022/08/14 10:00:56;;;;;;;4.13;3.58;;;26.60;79.80;;;;;;5046249;28;20037;-70
2022/08/14 10:03:33;;;;;;;4.60;4.20;;;26.70;78.10;;;;;;5032175;28;20041;-69
2022/08/14 10:06:16;;;;;;;3.92;3.53;;;26.70;76.90;;;;;;5045172;28;20044;-69
2022/08/14 10:09:05;;;;;;;4.78;3.90;;;26.80;77.50;;;;;;5050681;28;20469;-69
2022/08/14 10:11:38;;;;;;;4.25;3.47;;;26.80;77.10;;;;;;5042190;28;20062;-70
2022/08/14 10:14:18;;;;;;;4.50;3.38;;;26.90;78.10;;;;;;5048772;28;20041;-71
2022/08/14 10:16:55;;;;;;;4.68;3.88;;;27.00;75.40;;;;;;5044277;28;20033;-70
2022/08/14 10:19:27;;;;;;;3.97;3.58;;;27.20;74.60;;;;;;5032938;28;20049;-70
2022/08/14 10:22:07;;;;;;;3.95;3.42;;;27.30;74.10;;;;;;5028377;28;20045;-69
2022/08/14 10:24:45;;;;;;;5.82;3.47;;;27.50;73.20;;;;;;5048232;28;20051;-70
2022/08/14 10:27:22;;;;;;;3.85;3.30;;;27.60;74.00;;;;;;5046037;28;20043;-70
2022/08/14 10:29:59;;;;;;;3.85;3.47;;;27.70;70.70;;;;;;5043637;28;20034;-70
2022/08/14 10:32:46;;;;;;;4.15;3.33;;;27.80;70.50;;;;;;5046791;28;20029;-70
2022/08/14 10:35:18;;;;;;;5.07;3.95;;;27.80;71.90;;;;;;5048501;28;20033;-70
2022/08/14 10:37:51;;;;;;;3.30;3.10;;;27.90;70.50;;;;;;5047750;28;20407;-70
2022/08/14 10:40:31;;;;;;;4.28;3.10;;;28.00;70.30;;;;;;5045529;28;20042;-70
2022/08/14 10:43:14;;;;;;;3.60;3.10;;;28.00;70.50;;;;;;5041931;28;20065;-70
2022/08/14 10:46:00;;;;;;;3.95;3.20;;;28.20;70.00;;;;;;5043070;28;20053;-70
2022/08/14 10:48:32;;;;;;;3.58;3.15;;;28.20;67.70;;;;;;5047544;28;20578;-70
2022/08/14 10:51:04;;;;;;;2.97;2.78;;;28.30;66.80;;;;;;5046424;28;20033;-70
2022/08/14 10:53:36;;;;;;;3.20;2.90;;;28.30;64.60;;;;;;5030108;28;20116;-70
2022/08/14 10:56:10;;;;;;;3.47;2.70;;;28.30;62.20;;;;;;5048043;28;20045;-70
2022/08/14 10:58:41;;;;;;;3.72;3.10;;;28.30;62.80;;;;;;5045398;28;20669;-70
2022/08/14 11:01:13;;;;;;;3.25;2.97;;;28.40;65.50;;;;;;5039882;28;20045;-71
2022/08/14 11:03:47;;;;;;;3.23;2.23;;;28.50;65.40;;;;;;5047495;28;20041;-70
2022/08/14 11:06:19;;;;;;;3.83;2.88;;;28.50;62.30;;;;;;5046775;28;20052;-70
2022/08/14 11:08:51;;;;;;;3.53;3.22;;;28.70;62.30;;;;;;5041193;28;20060;-71
2022/08/14 11:11:26;;;;;;;4.43;3.10;;;28.80;61.80;;;;;;5026763;28;20044;-70
2022/08/14 11:13:58;;;;;;;4.97;4.43;;;28.80;61.90;;;;;;5024838;28;20370;-70
2022/08/14 11:16:30;;;;;;;5.10;4.60;;;28.90;61.20;;;;;;5048248;28;20041;-70
2022/08/14 11:19:02;;;;;;;2.95;2.75;;;29.10;61.40;;;;;;5050580;28;20127;-70
2022/08/14 11:21:39;;;;;;;3.90;3.28;;;29.20;60.50;;;;;;5031788;28;20060;-70
2022/08/14 11:24:13;;;;;;;8.27;7.53;;;29.30;58.20;;;;;;5029779;23;20052;-73
2022/08/14 11:26:45;;;;;;;2.88;2.67;;;29.30;56.00;;;;;;5009938;28;20069;-71
2022/08/14 11:29:20;;;;;;;3.00;2.70;;;29.10;55.60;;;;;;4973868;28;20504;-72
2022/08/14 11:31:55;;;;;;;4.00;2.90;;;29.10;57.70;;;;;;4992990;28;20045;-72
2022/08/14 11:34:26;;;;;;;3.10;2.78;;;29.20;57.00;;;;;;5007982;28;20046;-72
2022/08/14 11:37:08;;;;;;;4.63;2.50;;;29.30;56.50;;;;;;5011160;28;20053;-72
2022/08/14 11:39:40;;;;;;;2.78;2.47;;;29.40;54.10;;;;;;4995700;28;20045;-72
2022/08/14 11:42:23;;;;;;;4.22;2.30;;;29.20;54.40;;;;;;5013558;28;20064;-72
2022/08/14 11:44:57;;;;;;;2.22;2.03;;;29.30;52.10;;;;;;5012506;28;20400;-72
2022/08/14 11:47:36;;;;;;;2.53;2.20;;;29.50;51.40;;;;;;4997303;28;20048;-73
2022/08/14 11:50:19;;;;;;;3.55;2.30;;;29.60;51.50;;;;;;4986115;28;20042;-72
2022/08/14 11:52:54;;;;;;;3.53;2.33;;;29.70;51.50;;;;;;5007278;28;20046;-72
2022/08/14 11:55:26;;;;;;;3.45;2.45;;;29.70;50.00;;;;;;4991214;28;20030;-73
2022/08/14 11:58:04;;;;;;;2.60;2.38;;;29.60;51.00;;;;;;4976877;28;20677;-73
2022/08/14 12:00:52;;;;;;;2.75;2.55;;;29.60;53.90;;;;;;4997717;28;20078;-72
2022/08/14 12:03:41;;;;;;;2.60;2.30;;;29.60;53.50;;;;;;4981456;28;20042;-72
2022/08/14 12:06:17;;;;;;;2.30;2.10;;;29.90;53.50;;;;;;4998921;28;20765;-72
2022/08/14 12:08:52;;;;;;;2.40;2.20;;;30.10;51.30;;;;;;5016016;28;20395;-72
2022/08/14 12:11:25;;;;;;;2.78;2.58;;;30.10;52.00;;;;;;5012403;28;20057;-72
2022/08/14 12:14:07;;;;;;;6.53;4.93;;;30.20;51.90;;;;;;4995236;28;20052;-72
2022/08/14 12:16:39;;;;;;;3.60;2.45;;;30.20;51.00;;;;;;4996194;28;20130;-72
2022/08/14 12:19:10;;;;;;;4.82;2.58;;;30.20;51.80;;;;;;5012777;28;20050;-72
2022/08/14 12:21:49;;;;;;;2.90;2.60;;;30.30;52.60;;;;;;5012049;28;20526;-72
2022/08/14 12:24:27;;;;;;;2.72;2.50;;;30.40;50.30;;;;;;5009740;28;20574;-72
2022/08/14 12:26:59;;;;;;;2.53;2.33;;;30.30;50.20;;;;;;5013872;28;20033;-72
2022/08/14 12:29:30;;;;;;;2.55;2.35;;;30.30;51.90;;;;;;4997151;28;20136;-72
2022/08/14 12:32:05;;;;;;;3.05;2.78;;;30.30;51.90;;;;;;5012744;28;20041;-72
2022/08/14 12:34:34;;;;;;;3.03;2.72;;;30.20;51.40;;;;;;4973233;28;20096;-72
2022/08/14 12:37:07;;;;;;;3.60;2.90;;;30.30;51.00;;;;;;5008771;28;20062;-72
2022/08/14 12:39:39;;;;;;;2.90;2.60;;;30.30;53.00;;;;;;5007579;28;20045;-72
2022/08/14 12:42:11;;;;;;;3.10;2.80;;;30.40;53.30;;;;;;5007214;28;20049;-72
2022/08/14 12:44:47;;;;;;;5.10;2.83;;;30.50;52.40;;;;;;4982566;28;20250;-72
2022/08/14 12:47:19;;;;;;;3.13;2.83;;;30.50;51.40;;;;;;5009220;28;20469;-72
2022/08/14 12:49:53;;;;;;;3.35;2.55;;;30.60;51.40;;;;;;5010686;28;20045;-72
2022/08/14 12:52:29;;;;;;;2.67;2.47;;;30.70;51.20;;;;;;4998236;28;20038;-72
2022/08/14 12:55:04;;;;;;;3.88;2.70;;;30.70;51.10;;;;;;4995207;28;20488;-72
2022/08/14 12:57:42;;;;;;;4.60;2.60;;;30.80;49.60;;;;;;5011545;28;20696;-72
2022/08/14 13:00:20;;;;;;;2.38;2.17;;;30.90;48.80;;;;;;5011847;28;20050;-72
2022/08/14 13:02:54;;;;;;;2.40;2.20;;;30.90;49.90;;;;;;5012208;28;20116;-72
2022/08/14 13:05:31;;;;;;;3.05;2.38;;;30.90;50.00;;;;;;5003445;28;20046;-72
2022/08/14 13:08:05;;;;;;;3.05;2.60;;;31.10;50.40;;;;;;4977996;28;20078;-72
2022/08/14 13:10:37;;;;;;;3.10;2.33;;;31.20;50.10;;;;;;4995099;28;20522;-72
2022/08/14 13:13:07;;;;;;;2.45;2.25;;;31.30;48.80;;;;;;5011202;28;20053;-72
2022/08/14 13:15:42;;;;;;;2.63;2.42;;;31.40;47.20;;;;;;4991631;28;20048;-71
2022/08/14 13:18:15;;;;;;;5.85;2.40;;;31.40;46.50;;;;;;5011824;28;20065;-72
2022/08/14 13:20:48;;;;;;;3.45;2.20;;;31.30;45.90;;;;;;4994670;28;20510;-72
2022/08/14 13:23:17;;;;;;;5.05;2.28;;;31.40;47.80;;;;;;5002829;28;20053;-72
2022/08/14 13:25:51;;;;;;;2.60;2.22;;;31.50;46.90;;;;;;5005037;28;20042;-72
2022/08/14 13:28:26;;;;;;;3.10;2.13;;;31.50;47.30;;;;;;5006636;28;20041;-72
2022/08/14 13:31:02;;;;;;;2.45;2.25;;;31.60;48.10;;;;;;4994824;28;20054;-72
2022/08/14 13:33:35;;;;;;;4.07;2.35;;;31.70;46.40;;;;;;5009654;28;20045;-72
2022/08/14 13:36:09;;;;;;;3.40;2.45;;;31.90;46.00;;;;;;5008181;28;20042;-72